Time;durP1;ratioP1;P1;durP2;ratioP2;P2;SDS_P1;SDS_P2;PMS_P1;PMS_P2;Temp;Humidity;BMP_temperature;BMP_pressure;BME280_temperature;BME280_humidity;BME280_pressure;Samples;Min_cycle;Max_cycle;Signal;HPM_P1;HPM_P2
2022/04/05 00:00:50;;;;;;;14.82;6.35;;;;;;;;;;4922550;29;20354;-56
2022/04/05 00:03:15;;;;;;;15.37;6.40;;;;;;;;;;4926045;29;20093;-59
2022/04/05 00:05:41;;;;;;;16.10;7.03;;;;;;;;;;4924618;29;20285;-59
2022/04/05 00:08:06;;;;;;;14.82;6.97;;;;;;;;;;4927169;29;20027;-57
2022/04/05 00:10:31;;;;;;;16.50;7.32;;;;;;;;;;4925680;29;20051;-57
2022/04/05 00:12:58;;;;;;;17.23;6.80;;;;;;;;;;4926979;29;20416;-53
2022/04/05 00:15:23;;;;;;;17.75;6.78;;;;;;;;;;4914786;29;20032;-55
2022/04/05 00:17:48;;;;;;;15.80;5.97;;;;;;;;;;4918749;29;20781;-57
2022/04/05 00:20:13;;;;;;;17.85;6.68;;;;;;;;;;4919160;29;20032;-58
2022/04/05 00:22:39;;;;;;;13.82;5.65;;;;;;;;;;4906566;29;20050;-59
2022/04/05 00:25:04;;;;;;;13.93;5.85;;;;;;;;;;4926388;29;20087;-57
2022/04/05 00:27:30;;;;;;;14.13;6.18;;;;;;;;;;4925211;29;20031;-57
2022/04/05 00:29:55;;;;;;;14.55;6.50;;;;;;;;;;4926487;29;20030;-54
2022/04/05 00:32:20;;;;;;;16.90;6.70;;;;;;;;;;4926520;29;20039;-57
2022/04/05 00:34:45;;;;;;;13.05;6.18;;;;;;;;;;4926138;29;20039;-57
2022/04/05 00:37:11;;;;;;;13.57;5.50;;;;;;;;;;4923213;29;20036;-57
2022/04/05 00:39:36;;;;;;;14.33;6.00;;;;;;;;;;4915830;29;20870;-55
2022/04/05 00:42:01;;;;;;;14.68;6.28;;;;;;;;;;4926241;29;20267;-58
2022/04/05 00:44:27;;;;;;;14.32;5.80;;;;;;;;;;4925582;29;20039;-58
2022/04/05 00:46:52;;;;;;;14.27;5.83;;;;;;;;;;4924677;29;20031;-55
2022/04/05 00:49:22;;;;;;;13.85;6.07;;;;;;;;;;4926190;29;20295;-57
2022/04/05 00:51:47;;;;;;;12.07;4.97;;;;;;;;;;4908310;29;20035;-57
2022/04/05 00:54:14;;;;;;;15.23;7.03;;;;;;;;;;4919574;29;20435;-57
2022/04/05 00:56:40;;;;;;;12.10;5.45;;;;;;;;;;4925811;29;20283;-55
2022/04/05 00:59:07;;;;;;;14.70;5.93;;;;;;;;;;4920095;29;20024;-59
2022/04/05 01:01:32;;;;;;;15.23;6.43;;;;;;;;;;4912748;29;20275;-57
2022/04/05 01:03:57;;;;;;;13.20;5.87;;;;;;;;;;4928815;29;20507;-55
2022/04/05 01:06:26;;;;;;;14.63;6.00;;;;;;;;;;4927648;29;20287;-58
2022/04/05 01:08:52;;;;;;;11.35;5.50;;;;;;;;;;4929578;29;20276;-59
2022/04/05 01:11:17;;;;;;;11.27;5.18;;;;;;;;;;4928284;29;20679;-58
2022/04/05 01:13:43;;;;;;;12.07;5.63;;;;;;;;;;4928562;29;20118;-59
2022/04/05 01:16:09;;;;;;;9.75;4.70;;;;;;;;;;4926857;29;20290;-58
2022/04/05 01:18:35;;;;;;;12.73;6.10;;;;;;;;;;4926826;29;20043;-58
2022/04/05 01:21:00;;;;;;;10.97;5.00;;;;;;;;;;4929847;29;20436;-57
2022/04/05 01:23:25;;;;;;;16.90;6.47;;;;;;;;;;4928088;29;20338;-56
2022/04/05 01:25:51;;;;;;;16.80;6.80;;;;;;;;;;4919597;29;20107;-58
2022/04/05 01:28:16;;;;;;;12.70;5.65;;;;;;;;;;4927796;29;20798;-58
2022/04/05 01:30:41;;;;;;;13.90;5.47;;;;;;;;;;4928474;29;20034;-58
2022/04/05 01:33:07;;;;;;;13.67;5.27;;;;;;;;;;4927710;29;20036;-57
2022/04/05 01:35:33;;;;;;;12.70;5.15;;;;;;;;;;4929238;29;20319;-56
2022/04/05 01:37:58;;;;;;;13.13;5.18;;;;;;;;;;4920460;29;20464;-57
2022/04/05 01:40:24;;;;;;;10.93;4.70;;;;;;;;;;4917534;29;20058;-58
2022/04/05 01:42:49;;;;;;;12.80;5.00;;;;;;;;;;4927843;29;20121;-57
2022/04/05 01:45:15;;;;;;;11.63;5.10;;;;;;;;;;4927828;29;20080;-57
2022/04/05 01:47:40;;;;;;;10.90;5.03;;;;;;;;;;4928993;29;20271;-58
2022/04/05 01:50:06;;;;;;;10.48;4.68;;;;;;;;;;4927813;29;20860;-57
2022/04/05 01:52:31;;;;;;;11.27;4.90;;;;;;;;;;4929530;29;20031;-57
2022/04/05 01:54:56;;;;;;;11.77;5.20;;;;;;;;;;4928773;29;20031;-52
2022/04/05 01:57:22;;;;;;;12.33;4.63;;;;;;;;;;4923376;29;20826;-57
2022/04/05 01:59:47;;;;;;;11.57;5.30;;;;;;;;;;4917784;29;20910;-57
2022/04/05 02:02:12;;;;;;;9.98;5.03;;;;;;;;;;4928862;29;20062;-57
2022/04/05 02:04:38;;;;;;;13.07;6.18;;;;;;;;;;4928291;29;20114;-58
2022/04/05 02:07:10;;;;;;;11.98;6.00;;;;;;;;;;4927759;29;20032;-58
2022/04/05 02:09:35;;;;;;;13.88;6.05;;;;;;;;;;4926939;29;20030;-58
2022/04/05 02:12:00;;;;;;;11.77;6.22;;;;;;;;;;4928291;29;20486;-59
2022/04/05 02:14:25;;;;;;;12.80;6.32;;;;;;;;;;4926515;29;20036;-55
2022/04/05 02:16:51;;;;;;;12.70;5.47;;;;;;;;;;4925159;29;20012;-59
2022/04/05 02:19:16;;;;;;;11.17;5.37;;;;;;;;;;4925800;29;20386;-58
2022/04/05 02:21:41;;;;;;;12.15;5.63;;;;;;;;;;4926488;29;20307;-58
2022/04/05 02:24:07;;;;;;;9.55;4.68;;;;;;;;;;4927155;29;20072;-58
2022/04/05 02:26:32;;;;;;;9.10;4.70;;;;;;;;;;4925056;29;20482;-55
2022/04/05 02:28:58;;;;;;;10.15;5.13;;;;;;;;;;4927102;29;20090;-53
2022/04/05 02:31:23;;;;;;;12.60;5.97;;;;;;;;;;4926492;29;20027;-57
2022/04/05 02:33:48;;;;;;;9.88;4.60;;;;;;;;;;4927890;29;20298;-57
2022/04/05 02:36:14;;;;;;;9.25;4.53;;;;;;;;;;4911910;29;20031;-59
2022/04/05 02:38:39;;;;;;;10.60;4.47;;;;;;;;;;4914474;29;20497;-58
2022/04/05 02:41:05;;;;;;;10.15;4.78;;;;;;;;;;4925059;29;20758;-57
2022/04/05 02:43:31;;;;;;;8.93;4.43;;;;;;;;;;4928457;29;20716;-58
2022/04/05 02:45:56;;;;;;;10.63;4.40;;;;;;;;;;4926578;29;20114;-57
2022/04/05 02:48:22;;;;;;;10.23;4.57;;;;;;;;;;4928018;29;20027;-57
2022/04/05 02:50:47;;;;;;;8.57;4.07;;;;;;;;;;4928009;29;20311;-55
2022/04/05 02:53:13;;;;;;;10.82;5.07;;;;;;;;;;4909064;29;20066;-57
2022/04/05 02:55:38;;;;;;;10.67;5.03;;;;;;;;;;4927965;29;20047;-55
2022/04/05 02:58:03;;;;;;;8.90;4.32;;;;;;;;;;4895442;29;20346;-59
2022/04/05 03:00:29;;;;;;;10.35;5.18;;;;;;;;;;4927515;29;20123;-59
2022/04/05 03:02:54;;;;;;;8.65;4.30;;;;;;;;;;4925820;29;20034;-57
2022/04/05 03:05:21;;;;;;;9.38;4.07;;;;;;;;;;4927235;29;20028;-57
2022/04/05 03:07:46;;;;;;;8.75;4.13;;;;;;;;;;4926678;29;20030;-58
2022/04/05 03:10:12;;;;;;;7.30;4.15;;;;;;;;;;4922345;29;20028;-59
2022/04/05 03:12:37;;;;;;;7.35;3.80;;;;;;;;;;4925345;29;20019;-58
2022/04/05 03:15:03;;;;;;;8.43;4.00;;;;;;;;;;4926062;29;20543;-59
2022/04/05 03:17:28;;;;;;;9.10;4.40;;;;;;;;;;4925722;29;20609;-56
2022/04/05 03:19:53;;;;;;;8.17;3.90;;;;;;;;;;4926405;29;20091;-58
2022/04/05 03:22:18;;;;;;;7.70;3.97;;;;;;;;;;4927697;29;20284;-59
2022/04/05 03:24:45;;;;;;;8.90;4.28;;;;;;;;;;4926920;29;20483;-59
2022/04/05 03:27:10;;;;;;;8.48;3.97;;;;;;;;;;4926253;29;20035;-58
2022/04/05 03:29:35;;;;;;;8.55;4.68;;;;;;;;;;4927357;29;20032;-59
2022/04/05 03:32:01;;;;;;;8.77;3.97;;;;;;;;;;4926584;29;20015;-59
2022/04/05 03:34:27;;;;;;;8.18;3.83;;;;;;;;;;4915104;29;20284;-57
2022/04/05 03:36:52;;;;;;;8.60;4.25;;;;;;;;;;4924158;29;20392;-59
2022/04/05 03:39:17;;;;;;;8.73;4.15;;;;;;;;;;4910906;29;20027;-59
2022/04/05 03:41:44;;;;;;;9.97;4.50;;;;;;;;;;4927660;29;20020;-59
2022/04/05 03:44:09;;;;;;;8.18;4.60;;;;;;;;;;4926488;29;20683;-59
2022/04/05 03:46:34;;;;;;;8.20;3.50;;;;;;;;;;4927216;29;20550;-59
2022/04/05 03:48:59;;;;;;;7.93;4.03;;;;;;;;;;4926853;29;20817;-60
2022/04/05 03:51:25;;;;;;;8.88;4.25;;;;;;;;;;4927221;29;20900;-59
2022/04/05 03:53:50;;;;;;;9.02;4.40;;;;;;;;;;4919186;29;20481;-58
2022/04/05 03:56:16;;;;;;;7.85;3.33;;;;;;;;;;4919027;29;20034;-58
2022/04/05 03:58:41;;;;;;;8.27;3.90;;;;;;;;;;4913256;29;20515;-60
2022/04/05 04:01:07;;;;;;;6.88;3.47;;;;;;;;;;4925068;29;20024;-59
2022/04/05 04:03:32;;;;;;;7.82;4.07;;;;;;;;;;4926451;29;20590;-59
2022/04/05 04:05:59;;;;;;;7.07;3.97;;;;;;;;;;4926506;29;20012;-59
2022/04/05 04:08:24;;;;;;;7.68;3.90;;;;;;;;;;4926590;29;20034;-60
2022/04/05 04:10:51;;;;;;;7.20;3.80;;;;;;;;;;4925206;29;20425;-57
2022/04/05 04:13:16;;;;;;;8.88;3.90;;;;;;;;;;4924764;29;20275;-57
2022/04/05 04:15:41;;;;;;;7.70;4.35;;;;;;;;;;4925285;29;20030;-58
2022/04/05 04:18:07;;;;;;;6.57;3.55;;;;;;;;;;4924338;29;20411;-54
2022/04/05 04:20:32;;;;;;;8.60;4.10;;;;;;;;;;4925263;29;20024;-60
2022/04/05 04:22:57;;;;;;;7.40;3.80;;;;;;;;;;4925103;29;20355;-63
2022/04/05 04:25:22;;;;;;;6.10;3.40;;;;;;;;;;4924806;29;20283;-59
2022/04/05 04:27:48;;;;;;;7.27;3.83;;;;;;;;;;4925546;29;20259;-59
2022/04/05 04:30:13;;;;;;;7.93;3.87;;;;;;;;;;4924709;29;20284;-58
2022/04/05 04:32:39;;;;;;;8.23;4.27;;;;;;;;;;4926073;29;20267;-58
2022/04/05 04:35:05;;;;;;;7.20;3.55;;;;;;;;;;4926983;29;20287;-61
2022/04/05 04:37:30;;;;;;;7.38;4.40;;;;;;;;;;4929415;29;20024;-61
2022/04/05 04:39:55;;;;;;;9.80;4.90;;;;;;;;;;4928816;29;20106;-59
2022/04/05 04:42:21;;;;;;;7.13;3.90;;;;;;;;;;4928430;29;20715;-60
2022/04/05 04:44:46;;;;;;;7.50;3.30;;;;;;;;;;4929955;29;20259;-57
2022/04/05 04:47:11;;;;;;;6.53;3.88;;;;;;;;;;4913026;29;20267;-57
2022/04/05 04:49:36;;;;;;;6.65;3.85;;;;;;;;;;4927146;29;20092;-58
2022/04/05 04:52:02;;;;;;;6.57;3.33;;;;;;;;;;4929791;29;20043;-59
2022/04/05 04:54:28;;;;;;;7.05;3.35;;;;;;;;;;4912123;29;20692;-56
2022/04/05 04:56:53;;;;;;;6.47;3.80;;;;;;;;;;4928896;29;20039;-56
2022/04/05 04:59:18;;;;;;;5.80;3.35;;;;;;;;;;4928384;29;20302;-53
2022/04/05 05:01:43;;;;;;;7.17;4.00;;;;;;;;;;4929265;29;20016;-56
2022/04/05 05:04:09;;;;;;;6.20;3.20;;;;;;;;;;4911360;29;20283;-60
2022/04/05 05:06:34;;;;;;;5.93;3.40;;;;;;;;;;4930050;29;20043;-58
2022/04/05 05:08:59;;;;;;;6.60;3.37;;;;;;;;;;4929051;29;20272;-59
2022/04/05 05:11:25;;;;;;;8.77;3.83;;;;;;;;;;4929717;29;20288;-58
2022/04/05 05:13:50;;;;;;;6.60;3.58;;;;;;;;;;4929522;29;20307;-58
2022/04/05 05:16:15;;;;;;;7.68;4.07;;;;;;;;;;4925224;29;20044;-61
2022/04/05 05:18:40;;;;;;;4.97;3.10;;;;;;;;;;4926917;29;20031;-55
2022/04/05 05:21:06;;;;;;;6.20;3.37;;;;;;;;;;4929261;29;20115;-55
2022/04/05 05:23:31;;;;;;;6.13;2.90;;;;;;;;;;4929677;29;20082;-58
2022/04/05 05:25:56;;;;;;;7.10;3.30;;;;;;;;;;4929277;29;20290;-60
2022/04/05 05:28:22;;;;;;;7.15;3.55;;;;;;;;;;4925119;29;20035;-57
2022/04/05 05:30:47;;;;;;;5.63;3.13;;;;;;;;;;4924172;29;20483;-57
2022/04/05 05:33:12;;;;;;;8.48;4.07;;;;;;;;;;4922810;29;20107;-55
2022/04/05 05:35:38;;;;;;;6.43;3.87;;;;;;;;;;4922940;29;20042;-55
2022/04/05 05:38:04;;;;;;;7.43;3.20;;;;;;;;;;4921786;29;20264;-51
2022/04/05 05:40:29;;;;;;;5.38;3.05;;;;;;;;;;4926254;29;20035;-52
2022/04/05 05:42:55;;;;;;;6.20;3.33;;;;;;;;;;4925269;29;20767;-58
2022/04/05 05:45:21;;;;;;;5.95;3.22;;;;;;;;;;4924572;29;20086;-59
2022/04/05 05:47:46;;;;;;;6.30;3.28;;;;;;;;;;4919858;29;20400;-55
2022/04/05 05:50:13;;;;;;;7.82;3.47;;;;;;;;;;4924850;29;20055;-57
2022/04/05 05:52:41;;;;;;;5.82;2.70;;;;;;;;;;4925125;29;20024;-55
2022/04/05 05:55:07;;;;;;;6.35;3.20;;;;;;;;;;4924660;29;20027;-55
2022/04/05 05:57:34;;;;;;;6.03;3.30;;;;;;;;;;4922271;29;20023;-55
2022/04/05 05:59:59;;;;;;;5.60;3.13;;;;;;;;;;4924629;29;20114;-60
2022/04/05 06:02:25;;;;;;;5.38;3.13;;;;;;;;;;4923405;29;20064;-53
2022/04/05 06:04:50;;;;;;;6.80;3.47;;;;;;;;;;4924891;29;20130;-57
2022/04/05 06:07:15;;;;;;;7.00;3.85;;;;;;;;;;4924412;29;20030;-59
2022/04/05 06:09:40;;;;;;;6.97;3.67;;;;;;;;;;4925169;29;20550;-58
2022/04/05 06:12:06;;;;;;;6.40;3.30;;;;;;;;;;4908791;29;21026;-59
2022/04/05 06:14:32;;;;;;;5.25;3.13;;;;;;;;;;4925991;29;20058;-61
2022/04/05 06:16:57;;;;;;;6.28;3.22;;;;;;;;;;4924087;29;20027;-58
2022/04/05 06:19:23;;;;;;;6.57;3.53;;;;;;;;;;4924807;29;20546;-58
2022/04/05 06:21:48;;;;;;;4.75;2.85;;;;;;;;;;4924813;29;20683;-56
2022/04/05 06:24:14;;;;;;;6.37;3.37;;;;;;;;;;4909824;29;20056;-57
2022/04/05 06:26:40;;;;;;;6.38;3.28;;;;;;;;;;4924048;29;20264;-59
2022/04/05 06:29:05;;;;;;;5.28;2.95;;;;;;;;;;4920476;29;20038;-58
2022/04/05 06:31:30;;;;;;;7.30;3.70;;;;;;;;;;4927827;29;20459;-55
2022/04/05 06:33:58;;;;;;;5.82;2.90;;;;;;;;;;4919900;29;20294;-55
2022/04/05 06:36:23;;;;;;;5.95;3.30;;;;;;;;;;4921633;29;20032;-58
2022/04/05 06:38:49;;;;;;;6.55;3.35;;;;;;;;;;4924460;29;20777;-58
2022/04/05 06:41:14;;;;;;;6.53;3.33;;;;;;;;;;4925645;29;20123;-58
2022/04/05 06:43:39;;;;;;;6.13;2.97;;;;;;;;;;4925485;29;20027;-59
2022/04/05 06:46:05;;;;;;;5.60;3.13;;;;;;;;;;4925181;29;20051;-58
2022/04/05 06:48:30;;;;;;;5.63;3.05;;;;;;;;;;4924344;29;20694;-58
2022/04/05 06:50:55;;;;;;;6.45;3.10;;;;;;;;;;4924562;29;20043;-57
2022/04/05 06:53:22;;;;;;;5.82;2.85;;;;;;;;;;4923873;29;20028;-58
2022/04/05 06:55:47;;;;;;;6.22;3.10;;;;;;;;;;4922949;29;20028;-57
2022/04/05 06:58:12;;;;;;;6.03;3.22;;;;;;;;;;4922842;29;20053;-57
2022/04/05 07:00:38;;;;;;;6.77;3.23;;;;;;;;;;4924415;29;20019;-59
2022/04/05 07:03:04;;;;;;;5.95;3.25;;;;;;;;;;4923563;29;20295;-57
2022/04/05 07:05:30;;;;;;;5.78;3.20;;;;;;;;;;4923794;29;20651;-56
2022/04/05 07:07:55;;;;;;;5.30;3.08;;;;;;;;;;4925046;29;20023;-54
2022/04/05 07:10:20;;;;;;;6.65;3.10;;;;;;;;;;4923501;29;20107;-58
2022/04/05 07:12:46;;;;;;;5.90;3.10;;;;;;;;;;4924152;29;20038;-58
2022/04/05 07:15:11;;;;;;;5.60;3.03;;;;;;;;;;4922160;29;20450;-57
2022/04/05 07:17:36;;;;;;;6.87;3.63;;;;;;;;;;4924383;29;20024;-55
2022/04/05 07:20:02;;;;;;;5.85;3.30;;;;;;;;;;4924587;29;20383;-56
2022/04/05 07:22:27;;;;;;;6.55;3.25;;;;;;;;;;4925771;29;20020;-57
2022/04/05 07:24:53;;;;;;;5.77;2.80;;;;;;;;;;4924408;29;20028;-58
2022/04/05 07:27:18;;;;;;;5.63;3.25;;;;;;;;;;4925022;29;20288;-54
2022/04/05 07:29:43;;;;;;;5.72;3.13;;;;;;;;;;4926051;29;20460;-56
2022/04/05 07:32:08;;;;;;;6.30;3.60;;;;;;;;;;4925252;29;20088;-57
2022/04/05 07:34:34;;;;;;;5.32;2.83;;;;;;;;;;4925945;29;20287;-57
2022/04/05 07:36:59;;;;;;;5.63;3.10;;;;;;;;;;4923655;29;20051;-59
2022/04/05 07:39:24;;;;;;;5.90;3.37;;;;;;;;;;4910358;29;20735;-58
2022/04/05 07:41:50;;;;;;;5.30;3.20;;;;;;;;;;4926497;29;20407;-56
2022/04/05 07:44:15;;;;;;;6.55;3.67;;;;;;;;;;4908113;29;20039;-58
2022/04/05 07:46:40;;;;;;;7.55;3.22;;;;;;;;;;4924998;29;20088;-58
2022/04/05 07:49:05;;;;;;;4.87;2.83;;;;;;;;;;4923687;29;20055;-58
2022/04/05 07:51:31;;;;;;;5.60;2.80;;;;;;;;;;4926452;29;20275;-58
2022/04/05 07:53:56;;;;;;;4.87;2.70;;;;;;;;;;4913060;29;20028;-57
2022/04/05 07:56:21;;;;;;;6.85;3.85;;;;;;;;;;4926453;29;20885;-57
2022/04/05 07:58:47;;;;;;;5.80;3.33;;;;;;;;;;4910887;29;20031;-58
2022/04/05 08:01:13;;;;;;;5.25;2.80;;;;;;;;;;4922621;29;20711;-57
2022/04/05 08:03:38;;;;;;;5.80;3.20;;;;;;;;;;4925656;29;20471;-59
2022/04/05 08:06:03;;;;;;;5.03;2.90;;;;;;;;;;4906213;29;20040;-55
2022/04/05 08:08:29;;;;;;;6.78;3.10;;;;;;;;;;4924348;29;20131;-59
2022/04/05 08:10:54;;;;;;;6.05;3.40;;;;;;;;;;4924279;29;20030;-57
2022/04/05 08:13:20;;;;;;;8.52;3.65;;;;;;;;;;4925147;29;20039;-55
2022/04/05 08:15:45;;;;;;;5.13;2.90;;;;;;;;;;4923034;29;20051;-58
2022/04/05 08:18:10;;;;;;;6.43;3.28;;;;;;;;;;4924377;29;20291;-57
2022/04/05 08:20:36;;;;;;;4.43;2.77;;;;;;;;;;4923496;29;20587;-59
2022/04/05 08:23:04;;;;;;;5.80;3.20;;;;;;;;;;4924455;29;20291;-59
2022/04/05 08:25:29;;;;;;;4.70;2.90;;;;;;;;;;4925476;29;20090;-59
2022/04/05 08:27:55;;;;;;;5.43;3.50;;;;;;;;;;4908761;29;20036;-55
2022/04/05 08:30:20;;;;;;;5.87;3.30;;;;;;;;;;4924925;29;20283;-57
2022/04/05 08:32:46;;;;;;;5.57;2.92;;;;;;;;;;4925646;29;20358;-56
2022/04/05 08:35:12;;;;;;;5.75;3.15;;;;;;;;;;4922798;29;20036;-58
2022/04/05 08:37:38;;;;;;;4.97;2.88;;;;;;;;;;4923169;29;20064;-57
2022/04/05 08:40:06;;;;;;;5.60;3.05;;;;;;;;;;4925381;29;20066;-59
2022/04/05 08:42:35;;;;;;;4.75;2.83;;;;;;;;;;4925923;29;20784;-56
2022/04/05 08:45:04;;;;;;;6.45;3.70;;;;;;;;;;4924957;29;20023;-54
2022/04/05 08:47:30;;;;;;;6.33;3.47;;;;;;;;;;4926291;29;20022;-57
2022/04/05 08:49:55;;;;;;;5.47;3.20;;;;;;;;;;4926619;29;20378;-56
2022/04/05 08:52:20;;;;;;;5.15;3.17;;;;;;;;;;4926338;29;20039;-56
2022/04/05 08:54:46;;;;;;;7.22;3.50;;;;;;;;;;4925303;29;20055;-58
2022/04/05 08:57:11;;;;;;;6.28;3.13;;;;;;;;;;4925768;29;20567;-57
2022/04/05 08:59:36;;;;;;;6.18;3.30;;;;;;;;;;4926354;29;20495;-57
2022/04/05 09:02:02;;;;;;;6.93;3.07;;;;;;;;;;4918809;29;20024;-51
2022/04/05 09:04:34;;;;;;;5.90;3.33;;;;;;;;;;4925481;29;20035;-58
2022/04/05 09:07:18;;;;;;;7.60;3.83;;;;;;;;;;4926533;29;20034;-58
2022/04/05 09:09:43;;;;;;;8.63;3.60;;;;;;;;;;4926514;29;20078;-56
2022/04/05 09:12:15;;;;;;;6.38;3.47;;;;;;;;;;4902459;29;20023;-58
2022/04/05 09:14:43;;;;;;;6.97;3.90;;;;;;;;;;4916333;29;20020;-55
2022/04/05 09:17:09;;;;;;;6.60;3.30;;;;;;;;;;4925285;29;20323;-56
2022/04/05 09:19:38;;;;;;;8.15;3.58;;;;;;;;;;4929002;29;20122;-55
2022/04/05 09:22:03;;;;;;;12.90;7.03;;;;;;;;;;4929521;29;20019;-55
2022/04/05 09:24:32;;;;;;;42.15;16.73;;;;;;;;;;4893585;29;20508;-59
2022/04/05 09:26:57;;;;;;;64.82;24.42;;;;;;;;;;4904105;29;20123;-59
2022/04/05 09:29:23;;;;;;;65.38;23.35;;;;;;;;;;4892066;29;20516;-57
2022/04/05 09:31:48;;;;;;;60.55;21.60;;;;;;;;;;4906932;29;20047;-55
2022/04/05 09:34:21;;;;;;;55.08;22.35;;;;;;;;;;4886127;29;20072;-57
2022/04/05 09:36:48;;;;;;;53.67;20.15;;;;;;;;;;4889730;29;20127;-57
2022/04/05 09:39:16;;;;;;;46.78;17.60;;;;;;;;;;4882354;29;20054;-61
2022/04/05 09:41:42;;;;;;;42.78;16.23;;;;;;;;;;4889420;29;20097;-54
2022/04/05 09:44:07;;;;;;;39.88;16.23;;;;;;;;;;4889303;29;20107;-57
2022/04/05 09:46:33;;;;;;;40.58;16.25;;;;;;;;;;4887921;29;20093;-58
2022/04/05 09:49:01;;;;;;;38.38;16.17;;;;;;;;;;4900873;29;20078;-57
2022/04/05 09:51:26;;;;;;;36.58;15.15;;;;;;;;;;4890043;29;20364;-58
2022/04/05 09:53:52;;;;;;;37.70;14.53;;;;;;;;;;4889342;29;20488;-58
2022/04/05 09:56:35;;;;;;;34.67;14.68;;;;;;;;;;4889167;29;20597;-58
2022/04/05 09:59:03;;;;;;;35.22;13.75;;;;;;;;;;4891298;29;20107;-60
2022/04/05 10:01:29;;;;;;;33.15;13.73;;;;;;;;;;4893134;29;20052;-57
2022/04/05 10:04:01;;;;;;;32.85;13.90;;;;;;;;;;4890493;29;20451;-58
2022/04/05 10:06:28;;;;;;;36.08;13.90;;;;;;;;;;4871876;29;20028;-57
2022/04/05 10:08:55;;;;;;;30.65;13.70;;;;;;;;;;4888048;29;20029;-59
2022/04/05 10:11:20;;;;;;;35.10;14.38;;;;;;;;;;4887195;29;20587;-60
2022/04/05 10:13:45;;;;;;;32.35;12.93;;;;;;;;;;4887382;29;20017;-56
2022/04/05 10:16:11;;;;;;;30.27;13.50;;;;;;;;;;4886850;29;20518;-58
2022/04/05 10:18:36;;;;;;;31.55;13.02;;;;;;;;;;4886060;29;20435;-56
2022/04/05 10:21:02;;;;;;;32.60;13.77;;;;;;;;;;4887902;29;20587;-58
2022/04/05 10:23:28;;;;;;;31.52;13.20;;;;;;;;;;4895048;29;20052;-59
2022/04/05 10:25:53;;;;;;;29.42;12.50;;;;;;;;;;4905016;29;20024;-58
2022/04/05 10:28:31;;;;;;;33.35;13.82;;;;;;;;;;4907225;29;20536;-59
2022/04/05 10:30:59;;;;;;;28.67;12.27;;;;;;;;;;4905991;29;20024;-60
2022/04/05 10:33:26;;;;;;;28.58;12.30;;;;;;;;;;4902274;29;23135;-59
2022/04/05 10:35:55;;;;;;;28.23;12.43;;;;;;;;;;4905579;29;20044;-59
2022/04/05 10:38:20;;;;;;;32.00;11.52;;;;;;;;;;4903985;29;20039;-60
2022/04/05 10:41:04;;;;;;;31.80;12.60;;;;;;;;;;4906252;29;20420;-61
2022/04/05 10:43:29;;;;;;;26.27;11.20;;;;;;;;;;4905880;29;20017;-57
2022/04/05 10:45:55;;;;;;;29.10;11.48;;;;;;;;;;4906520;29;20082;-54
2022/04/05 10:48:25;;;;;;;33.47;13.03;;;;;;;;;;4905743;29;20126;-56
2022/04/05 10:51:00;;;;;;;28.13;11.65;;;;;;;;;;4904896;29;20031;-58
2022/04/05 10:53:34;;;;;;;31.92;12.70;;;;;;;;;;4906244;29;20035;-58
2022/04/05 10:56:10;;;;;;;25.73;11.30;;;;;;;;;;4903587;29;20024;-59
2022/04/05 10:58:48;;;;;;;28.77;11.25;;;;;;;;;;4905341;29;20055;-58
2022/04/05 11:01:13;;;;;;;25.77;10.70;;;;;;;;;;4906247;29;20083;-59
2022/04/05 11:03:38;;;;;;;28.42;12.05;;;;;;;;;;4907202;29;20582;-57
2022/04/05 11:06:03;;;;;;;25.20;11.20;;;;;;;;;;4906565;29;20323;-54
2022/04/05 11:08:29;;;;;;;24.33;10.40;;;;;;;;;;4906630;29;20055;-58
2022/04/05 11:10:55;;;;;;;25.63;12.20;;;;;;;;;;4905308;29;20067;-56
2022/04/05 11:13:30;;;;;;;24.20;10.60;;;;;;;;;;4920776;29;20524;-55
2022/04/05 11:15:56;;;;;;;28.42;11.88;;;;;;;;;;4904445;29;20031;-56
2022/04/05 11:18:34;;;;;;;27.23;11.77;;;;;;;;;;4906277;29;20122;-54
2022/04/05 11:21:00;;;;;;;26.05;12.18;;;;;;;;;;4908234;29;20063;-57
2022/04/05 11:23:44;;;;;;;23.48;10.93;;;;;;;;;;4916113;29;20114;-53
2022/04/05 11:26:23;;;;;;;28.08;14.35;;;;;;;;;;4924685;29;20671;-58
2022/04/05 11:28:48;;;;;;;27.33;12.60;;;;;;;;;;4920461;29;20051;-58
2022/04/05 11:31:25;;;;;;;25.57;12.30;;;;;;;;;;4924258;29;20502;-58
2022/04/05 11:33:50;;;;;;;27.83;18.73;;;;;;;;;;4922006;29;20774;-58
2022/04/05 11:36:17;;;;;;;31.00;21.00;;;;;;;;;;4922804;29;20026;-54
2022/04/05 11:38:43;;;;;;;25.80;13.65;;;;;;;;;;4922883;29;20287;-56
2022/04/05 11:41:09;;;;;;;26.75;12.32;;;;;;;;;;4906062;29;20039;-56
2022/04/05 11:43:40;;;;;;;24.33;10.75;;;;;;;;;;4924512;29;20016;-56
2022/04/05 11:46:15;;;;;;;22.75;11.27;;;;;;;;;;4924186;29;20031;-57
2022/04/05 11:48:47;;;;;;;21.73;10.68;;;;;;;;;;4924864;29;20020;-58
2022/04/05 11:51:13;;;;;;;21.67;10.30;;;;;;;;;;4923290;29;20043;-57
2022/04/05 11:53:39;;;;;;;22.83;9.93;;;;;;;;;;4920584;29;20023;-58
2022/04/05 11:56:05;;;;;;;22.13;10.52;;;;;;;;;;4912639;29;20261;-57
2022/04/05 11:58:34;;;;;;;24.98;11.27;;;;;;;;;;4922786;29;20078;-56
2022/04/05 12:00:59;;;;;;;24.27;10.23;;;;;;;;;;4923350;29;20035;-56
2022/04/05 12:03:24;;;;;;;22.83;10.30;;;;;;;;;;4922490;29;20027;-56
2022/04/05 12:05:50;;;;;;;21.85;10.20;;;;;;;;;;4924471;29;20114;-58
2022/04/05 12:08:15;;;;;;;20.88;9.80;;;;;;;;;;4924677;29;20024;-58
2022/04/05 12:10:41;;;;;;;20.48;9.82;;;;;;;;;;4923172;29;20063;-58
2022/04/05 12:13:06;;;;;;;20.45;9.90;;;;;;;;;;4921162;29;20031;-55
2022/04/05 12:15:33;;;;;;;22.95;10.15;;;;;;;;;;4923226;29;20051;-58
2022/04/05 12:18:17;;;;;;;20.80;9.27;;;;;;;;;;4906512;29;20038;-56
2022/04/05 12:20:58;;;;;;;19.77;10.02;;;;;;;;;;4923548;29;20039;-60
2022/04/05 12:23:27;;;;;;;21.38;9.63;;;;;;;;;;4922846;29;20062;-57
2022/04/05 12:26:06;;;;;;;21.75;10.15;;;;;;;;;;4905884;29;20028;-58
2022/04/05 12:28:32;;;;;;;21.02;10.20;;;;;;;;;;4922669;29;20411;-58
2022/04/05 12:31:07;;;;;;;25.20;13.25;;;;;;;;;;4923824;29;20027;-58
2022/04/05 12:33:33;;;;;;;23.10;12.30;;;;;;;;;;4921940;29;20110;-59
2022/04/05 12:35:58;;;;;;;22.90;15.55;;;;;;;;;;4920053;29;20168;-58
2022/04/05 12:38:24;;;;;;;21.60;13.02;;;;;;;;;;4906308;29;20028;-58
2022/04/05 12:40:49;;;;;;;25.90;17.45;;;;;;;;;;4920883;29;20667;-58
2022/04/05 12:43:15;;;;;;;24.98;14.00;;;;;;;;;;4923304;29;20781;-58
2022/04/05 12:45:41;;;;;;;21.65;13.18;;;;;;;;;;4922621;29;20468;-57
2022/04/05 12:48:10;;;;;;;23.40;11.43;;;;;;;;;;4906137;29;20808;-57
2022/04/05 12:50:43;;;;;;;21.88;10.93;;;;;;;;;;4924401;29;20035;-57
2022/04/05 12:53:08;;;;;;;17.10;8.02;;;;;;;;;;4924106;29;20114;-58
2022/04/05 12:55:34;;;;;;;18.52;8.82;;;;;;;;;;4923957;29;20516;-58
2022/04/05 12:57:59;;;;;;;19.67;9.55;;;;;;;;;;4920632;29;20024;-58
2022/04/05 13:00:32;;;;;;;18.27;8.63;;;;;;;;;;4918260;29;20055;-58
2022/04/05 13:03:11;;;;;;;19.08;9.68;;;;;;;;;;4926074;29;20030;-55
2022/04/05 13:08:28;;;;;;;20.30;9.73;;;;;;;;;;4926410;29;20561;-55
2022/04/05 13:10:54;;;;;;;19.60;9.48;;;;;;;;;;4925523;29;20028;-57
2022/04/05 13:13:23;;;;;;;23.27;14.38;;;;;;;;;;4926272;29;20023;-58
2022/04/05 13:15:49;;;;;;;21.08;11.40;;;;;;;;;;4927067;29;20070;-58
2022/04/05 13:18:15;;;;;;;15.13;8.27;;;;;;;;;;4920796;29;20053;-58
2022/04/05 13:20:41;;;;;;;18.10;9.60;;;;;;;;;;4922801;29;20047;-57
2022/04/05 13:23:06;;;;;;;18.27;9.68;;;;;;;;;;4928508;29;20090;-57
2022/04/05 13:25:38;;;;;;;21.45;10.00;;;;;;;;;;4928058;29;20027;-57
2022/04/05 13:28:04;;;;;;;18.30;10.32;;;;;;;;;;4926314;29;20094;-58
2022/04/05 13:30:30;;;;;;;22.55;12.93;;;;;;;;;;4929577;29;20499;-57
2022/04/05 13:33:03;;;;;;;22.35;14.57;;;;;;;;;;4927805;29;20058;-57
2022/04/05 13:35:28;;;;;;;7.43;4.60;;;;;;;;;;4912545;29;20083;-58
2022/04/05 13:37:53;;;;;;;7.40;4.68;;;;;;;;;;4922274;29;20031;-59
2022/04/05 13:40:19;;;;;;;16.90;7.65;;;;;;;;;;4912569;29;20721;-56
2022/04/05 13:42:44;;;;;;;14.60;6.43;;;;;;;;;;4927273;29;20022;-56
2022/04/05 13:45:10;;;;;;;13.73;6.50;;;;;;;;;;4928353;29;20051;-57
2022/04/05 13:47:36;;;;;;;11.98;6.97;;;;;;;;;;4928968;29;20027;-57
2022/04/05 13:50:02;;;;;;;9.73;5.53;;;;;;;;;;4925857;29;20068;-58
2022/04/05 13:52:28;;;;;;;15.27;7.03;;;;;;;;;;4927818;29;20023;-58
2022/04/05 13:54:53;;;;;;;15.52;7.78;;;;;;;;;;4928227;29;20086;-58
2022/04/05 13:57:20;;;;;;;15.07;6.63;;;;;;;;;;4926364;29;20514;-57
2022/04/05 13:59:45;;;;;;;13.50;6.70;;;;;;;;;;4926916;29;20046;-61
2022/04/05 14:02:11;;;;;;;15.35;7.25;;;;;;;;;;4925477;29;20023;-57
2022/04/05 14:04:36;;;;;;;13.77;9.00;;;;;;;;;;4928376;29;20516;-57
2022/04/05 14:07:02;;;;;;;14.70;8.60;;;;;;;;;;4927662;29;20515;-55
2022/04/05 14:09:28;;;;;;;14.85;6.40;;;;;;;;;;4928028;29;20090;-59
2022/04/05 14:11:53;;;;;;;13.52;8.98;;;;;;;;;;4927681;29;20045;-58
2022/04/05 14:14:19;;;;;;;14.52;7.95;;;;;;;;;;4924359;29;20504;-59
2022/04/05 14:16:44;;;;;;;15.75;9.27;;;;;;;;;;4927502;29;20031;-57
2022/04/05 14:19:09;;;;;;;28.35;25.58;;;;;;;;;;4912150;29;20028;-58
2022/04/05 14:21:35;;;;;;;14.70;9.02;;;;;;;;;;4926360;29;20862;-58
2022/04/05 14:24:02;;;;;;;16.65;10.80;;;;;;;;;;4925751;29;20495;-56
2022/04/05 14:26:28;;;;;;;12.70;7.75;;;;;;;;;;4928198;29;20135;-59
2022/04/05 14:28:56;;;;;;;14.98;12.02;;;;;;;;;;4925754;29;20182;-59
2022/04/05 14:31:21;;;;;;;15.40;11.45;;;;;;;;;;4925261;29;20035;-58